Time;durP1;ratioP1;P1;durP2;ratioP2;P2;SDS_P1;SDS_P2;PMS_P1;PMS_P2;Temp;Humidity;BMP_temperature;BMP_pressure;BME280_temperature;BME280_humidity;BME280_pressure;Samples;Min_cycle;Max_cycle;Signal;HPM_P1;HPM_P2
2022/10/04 00:01:52;;;;;;;3.77;1.70;;;14.10;99.90;;;;;;5096634;28;20426;-46
2022/10/04 00:04:24;;;;;;;4.00;1.90;;;14.20;99.90;;;;;;5096342;28;20422;-49
2022/10/04 00:06:58;;;;;;;3.67;2.47;;;14.20;99.90;;;;;;5096563;28;20434;-48
2022/10/04 00:09:29;;;;;;;2.73;1.60;;;14.20;99.90;;;;;;5096471;28;20500;-45
2022/10/04 00:11:58;;;;;;;3.83;1.83;;;14.10;99.90;;;;;;5096441;28;20785;-44
2022/10/04 00:14:29;;;;;;;8.37;1.70;;;14.10;99.90;;;;;;5096350;28;20809;-48
2022/10/04 00:16:58;;;;;;;9.53;2.33;;;14.10;99.90;;;;;;5096324;28;20469;-46
2022/10/04 00:19:39;;;;;;;7.43;2.00;;;14.10;99.90;;;;;;5096238;28;20777;-47
2022/10/04 00:22:16;;;;;;;4.10;2.00;;;14.10;99.90;;;;;;5096032;28;20414;-46
2022/10/04 00:25:17;;;;;;;9.23;2.07;;;14.10;99.90;;;;;;5095682;28;20572;-51
2022/10/04 00:28:16;;;;;;;3.43;2.03;;;14.10;99.90;;;;;;5095845;28;20448;-44
2022/10/04 00:30:43;;;;;;;3.60;1.10;;;14.10;99.90;;;;;;5095885;28;20503;-47
2022/10/04 00:33:10;;;;;;;8.57;1.50;;;14.00;99.90;;;;;;5096031;28;20761;-41
2022/10/04 00:35:50;;;;;;;4.30;1.53;;;14.10;99.90;;;;;;5095901;28;20814;-44
2022/10/04 00:38:26;;;;;;;6.60;1.73;;;14.10;99.90;;;;;;5096080;28;20491;-43
2022/10/04 00:41:00;;;;;;;6.90;1.90;;;14.00;99.90;;;;;;5095918;28;20959;-45
2022/10/04 00:43:32;;;;;;;4.30;1.70;;;14.00;99.90;;;;;;5096022;28;20430;-44
2022/10/04 00:46:04;;;;;;;3.10;1.60;;;13.90;99.90;;;;;;5095662;28;20472;-46
2022/10/04 00:48:36;;;;;;;5.00;1.90;;;13.90;99.90;;;;;;5095804;28;20433;-45
2022/10/04 00:51:12;;;;;;;4.20;2.13;;;13.90;99.90;;;;;;5095538;28;20505;-46
2022/10/04 00:53:51;;;;;;;6.50;1.97;;;14.00;99.90;;;;;;5095758;28;20805;-46
2022/10/04 00:56:23;;;;;;;6.17;1.67;;;13.90;99.90;;;;;;5095637;28;20480;-43
2022/10/04 00:59:12;;;;;;;3.73;2.27;;;14.00;99.90;;;;;;5095500;28;20488;-44
2022/10/04 01:01:39;;;;;;;9.87;1.87;;;14.00;99.90;;;;;;5095587;28;20441;-44
2022/10/04 01:04:13;;;;;;;3.90;2.00;;;14.00;99.90;;;;;;5095685;28;20465;-44
2022/10/04 01:06:42;;;;;;;5.57;1.90;;;14.00;99.90;;;;;;5095580;28;20433;-42
2022/10/04 01:09:13;;;;;;;5.70;1.93;;;13.90;99.90;;;;;;5095405;28;20548;-45
2022/10/04 01:11:47;;;;;;;7.43;2.30;;;14.00;99.90;;;;;;5095338;28;20445;-45
2022/10/04 01:14:20;;;;;;;3.03;1.50;;;13.90;99.90;;;;;;5094371;28;20469;-44
2022/10/04 01:16:47;;;;;;;3.70;1.70;;;14.00;99.90;;;;;;5095283;28;20472;-46
2022/10/04 01:19:29;;;;;;;3.93;1.67;;;14.00;99.90;;;;;;5094883;28;20456;-45
2022/10/04 01:22:10;;;;;;;4.20;1.60;;;14.00;99.90;;;;;;5095178;28;20441;-49
2022/10/04 01:24:40;;;;;;;3.10;1.50;;;14.00;99.90;;;;;;5095192;28;20437;-46
2022/10/04 01:27:33;;;;;;;4.27;1.43;;;13.90;99.90;;;;;;5094760;28;20452;-47
2022/10/04 01:30:00;;;;;;;4.77;1.80;;;14.00;99.90;;;;;;5095065;28;20437;-48
2022/10/04 01:32:28;;;;;;;8.20;2.10;;;13.90;99.90;;;;;;5095082;28;20982;-46
2022/10/04 01:34:56;;;;;;;5.00;1.93;;;13.90;99.90;;;;;;5094646;28;20949;-45
2022/10/04 01:37:23;;;;;;;10.10;2.03;;;13.80;99.90;;;;;;5094784;28;20485;-52
2022/10/04 01:39:50;;;;;;;7.90;1.73;;;13.80;99.90;;;;;;5094766;28;20426;-44
2022/10/04 01:42:22;;;;;;;4.23;1.77;;;13.70;99.90;;;;;;5094762;28;20534;-46
2022/10/04 01:44:55;;;;;;;3.73;1.67;;;13.70;99.90;;;;;;5094941;28;20485;-44
2022/10/04 01:47:27;;;;;;;5.23;1.80;;;13.70;99.90;;;;;;5094534;28;20476;-44
2022/10/04 01:49:58;;;;;;;5.43;2.20;;;13.60;99.90;;;;;;5095034;28;20525;-49
2022/10/04 01:52:35;;;;;;;7.23;2.00;;;13.60;99.90;;;;;;5095375;28;20524;-49
2022/10/04 01:55:09;;;;;;;4.77;1.77;;;13.60;99.90;;;;;;5094927;28;20425;-49
2022/10/04 01:57:41;;;;;;;1.60;1.47;;;13.50;99.90;;;;;;5094672;28;20492;-48
2022/10/04 02:00:12;;;;;;;2.43;1.50;;;13.50;99.90;;;;;;5094666;28;20449;-45
2022/10/04 02:02:47;;;;;;;4.00;2.53;;;13.50;99.90;;;;;;5094713;28;20790;-49
2022/10/04 02:05:18;;;;;;;3.43;1.47;;;13.50;99.90;;;;;;5094560;28;20472;-51
2022/10/04 02:07:47;;;;;;;2.73;1.97;;;13.50;99.90;;;;;;5094322;28;20421;-44
2022/10/04 02:10:19;;;;;;;2.03;1.47;;;13.50;99.90;;;;;;5094186;28;20480;-44
2022/10/04 02:12:48;;;;;;;7.50;2.10;;;13.50;99.90;;;;;;5094382;28;20413;-45
2022/10/04 02:15:19;;;;;;;7.60;2.30;;;15.10;99.90;;;;;;5094629;28;20449;-47
2022/10/04 02:17:47;;;;;;;9.93;2.40;;;13.50;99.90;;;;;;5094556;28;20556;-49
2022/10/04 02:20:17;;;;;;;6.70;1.70;;;13.50;99.90;;;;;;5094503;28;20441;-42
2022/10/04 02:22:46;;;;;;;3.27;1.47;;;13.50;99.90;;;;;;5094481;28;20444;-48
2022/10/04 02:25:15;;;;;;;5.20;2.00;;;13.40;99.90;;;;;;5094871;28;20455;-45
2022/10/04 02:27:42;;;;;;;10.90;2.10;;;13.40;99.90;;;;;;5098337;28;20552;-45
2022/10/04 02:30:11;;;;;;;7.70;1.83;;;13.40;99.90;;;;;;5098423;28;20441;-41
2022/10/04 02:32:58;;;;;;;5.33;1.60;;;13.30;99.90;;;;;;5097147;28;20475;-45
2022/10/04 02:35:28;;;;;;;6.30;1.73;;;13.30;99.90;;;;;;5098596;28;20454;-45
2022/10/04 02:38:02;;;;;;;8.07;1.73;;;13.30;99.90;;;;;;5098219;28;20560;-45
2022/10/04 02:40:33;;;;;;;10.30;1.53;;;13.40;99.90;;;;;;5098543;28;20420;-45
2022/10/04 02:43:12;;;;;;;2.60;1.47;;;13.40;99.90;;;;;;5098204;28;20739;-46
2022/10/04 02:45:46;;;;;;;1.97;1.20;;;13.40;99.90;;;;;;5098033;28;20468;-51
2022/10/04 02:48:27;;;;;;;4.27;1.90;;;13.40;99.90;;;;;;5098081;28;20490;-42
2022/10/04 02:50:56;;;;;;;2.17;1.97;;;13.40;99.90;;;;;;5097774;28;20430;-44
2022/10/04 02:53:31;;;;;;;3.47;1.43;;;13.40;99.90;;;;;;5097972;28;20465;-43
2022/10/04 02:55:58;;;;;;;5.00;1.43;;;13.30;99.90;;;;;;5097800;28;20461;-46
2022/10/04 02:58:26;;;;;;;2.50;1.40;;;13.30;99.90;;;;;;5097962;28;20437;-45
2022/10/04 03:00:57;;;;;;;5.10;1.50;;;13.20;99.90;;;;;;5097462;28;20812;-47
2022/10/04 03:03:28;;;;;;;8.83;2.53;;;13.20;99.90;;;;;;5097809;28;20437;-47
2022/10/04 03:06:08;;;;;;;3.63;1.53;;;13.20;99.90;;;;;;5097750;28;20480;-49
2022/10/04 03:08:41;;;;;;;5.67;2.17;;;13.20;99.90;;;;;;5097709;28;20425;-44
2022/10/04 03:11:10;;;;;;;4.50;1.70;;;13.30;99.90;;;;;;5097609;28;20468;-49
2022/10/04 03:13:39;;;;;;;6.30;1.63;;;13.10;99.90;;;;;;5097616;28;20425;-46
2022/10/04 03:16:06;;;;;;;8.90;1.93;;;13.10;99.90;;;;;;5097294;28;20487;-47
2022/10/04 03:18:36;;;;;;;3.07;2.10;;;13.00;99.90;;;;;;5097737;28;20464;-46
2022/10/04 03:21:06;;;;;;;4.03;2.47;;;13.00;99.90;;;;;;5097490;28;20760;-44
2022/10/04 03:23:34;;;;;;;4.53;2.00;;;13.00;99.90;;;;;;5097306;28;20472;-44
2022/10/04 03:26:04;;;;;;;6.80;2.33;;;12.90;99.90;;;;;;5097429;28;20900;-51
2022/10/04 03:28:31;;;;;;;6.17;1.53;;;12.90;99.90;;;;;;5098388;28;20472;-50
2022/10/04 03:30:59;;;;;;;2.70;1.57;;;12.90;99.90;;;;;;5097372;28;20797;-43
2022/10/04 03:33:28;;;;;;;5.63;1.97;;;12.80;99.90;;;;;;5097194;28;20488;-46
2022/10/04 03:36:00;;;;;;;3.57;2.37;;;12.70;99.90;;;;;;5096872;28;20922;-48
2022/10/04 03:38:28;;;;;;;9.90;2.47;;;12.80;99.90;;;;;;5096575;28;20792;-48
2022/10/04 03:40:59;;;;;;;5.10;2.13;;;12.70;99.90;;;;;;5096770;28;20878;-45
2022/10/04 03:43:30;;;;;;;3.17;1.93;;;12.70;99.90;;;;;;5097033;28;20434;-43
2022/10/04 03:45:58;;;;;;;7.20;1.77;;;12.80;99.90;;;;;;5096844;28;20477;-44
2022/10/04 03:48:31;;;;;;;11.53;1.70;;;12.70;99.90;;;;;;5096568;28;20449;-45
2022/10/04 03:51:02;;;;;;;5.03;2.10;;;12.70;99.90;;;;;;5096782;28;20469;-47
2022/10/04 03:53:34;;;;;;;11.40;2.47;;;12.60;99.90;;;;;;5096918;28;20426;-43
2022/10/04 03:56:02;;;;;;;3.43;1.90;;;12.60;99.90;;;;;;5096374;28;20980;-43
2022/10/04 03:58:31;;;;;;;6.00;2.10;;;12.60;99.90;;;;;;5096921;28;20442;-43
2022/10/04 04:01:18;;;;;;;8.90;1.67;;;12.60;99.90;;;;;;5096737;28;20945;-48
2022/10/04 04:03:57;;;;;;;2.73;1.60;;;12.50;99.90;;;;;;5096785;28;20441;-43
2022/10/04 04:06:30;;;;;;;1.73;1.63;;;12.50;99.90;;;;;;5096233;28;20916;-45
2022/10/04 04:08:59;;;;;;;4.13;2.00;;;12.50;99.90;;;;;;5096582;28;20442;-42
2022/10/04 04:11:27;;;;;;;6.50;1.83;;;12.60;99.90;;;;;;5096565;28;20441;-44
2022/10/04 04:14:01;;;;;;;3.30;1.77;;;12.60;99.90;;;;;;5096530;28;20453;-43
2022/10/04 04:16:29;;;;;;;3.77;2.20;;;12.60;99.90;;;;;;5096613;28;20783;-45
2022/10/04 04:18:59;;;;;;;6.10;1.87;;;12.60;99.90;;;;;;5096596;28;20441;-44
2022/10/04 04:21:29;;;;;;;7.90;2.60;;;12.60;99.90;;;;;;5096378;28;20448;-43
2022/10/04 04:23:59;;;;;;;7.10;2.57;;;12.70;99.90;;;;;;5096048;28;20997;-49
2022/10/04 04:26:33;;;;;;;5.57;2.07;;;12.60;99.90;;;;;;5095974;28;20445;-50
2022/10/04 04:29:06;;;;;;;12.57;2.83;;;12.70;99.90;;;;;;5096127;28;20525;-46
2022/10/04 04:31:40;;;;;;;4.97;2.40;;;12.70;99.90;;;;;;5095769;28;20442;-49
2022/10/04 04:34:18;;;;;;;4.57;1.73;;;12.60;99.90;;;;;;5096082;28;20789;-48
2022/10/04 04:36:46;;;;;;;11.40;1.30;;;12.70;99.90;;;;;;5096053;28;20552;-49
2022/10/04 04:42:04;;;;;;;3.33;1.73;;;12.70;99.90;;;;;;5095714;28;20408;-45
2022/10/04 04:44:32;;;;;;;4.20;1.57;;;12.70;99.90;;;;;;5096123;28;20438;-44
2022/10/04 04:46:59;;;;;;;7.23;2.63;;;12.70;99.90;;;;;;5095361;28;20469;-45
2022/10/04 04:49:30;;;;;;;2.37;1.50;;;12.60;99.90;;;;;;5094831;28;20453;-46
2022/10/04 04:51:58;;;;;;;1.50;1.33;;;12.70;99.90;;;;;;5095563;28;20500;-49
2022/10/04 04:54:27;;;;;;;4.03;1.40;;;12.50;99.90;;;;;;5095672;28;20455;-49
2022/10/04 04:56:55;;;;;;;13.37;2.10;;;12.60;99.90;;;;;;5095460;28;20489;-49
2022/10/04 04:59:24;;;;;;;11.20;2.40;;;12.50;99.90;;;;;;5095564;28;20458;-44
2022/10/04 05:01:52;;;;;;;12.00;2.90;;;12.60;99.90;;;;;;5095133;28;20445;-47
2022/10/04 05:04:21;;;;;;;3.70;1.83;;;12.50;99.90;;;;;;5095481;28;20492;-47
2022/10/04 05:06:58;;;;;;;3.40;1.70;;;12.50;99.90;;;;;;5116349;28;20448;-42
2022/10/04 05:09:30;;;;;;;4.33;1.70;;;12.60;99.90;;;;;;5119068;28;20444;-42
2022/10/04 05:12:06;;;;;;;6.30;1.53;;;12.60;99.90;;;;;;5118332;28;20435;-46
2022/10/04 05:14:33;;;;;;;7.43;2.70;;;12.50;99.90;;;;;;5118779;28;20472;-44
2022/10/04 05:17:01;;;;;;;3.83;2.20;;;12.50;99.90;;;;;;5118460;28;20480;-43
2022/10/04 05:19:31;;;;;;;3.63;1.87;;;12.50;99.90;;;;;;5117912;28;20472;-52
2022/10/04 05:22:01;;;;;;;5.07;2.30;;;12.50;99.90;;;;;;5118739;28;20448;-44
2022/10/04 05:24:31;;;;;;;2.67;1.40;;;12.60;99.90;;;;;;5117588;28;20555;-47
2022/10/04 05:27:03;;;;;;;2.47;2.13;;;12.50;99.90;;;;;;5118220;28;20425;-50
2022/10/04 05:29:34;;;;;;;7.37;1.93;;;12.60;99.90;;;;;;5117664;28;20468;-45
2022/10/04 05:32:12;;;;;;;9.90;1.90;;;12.50;99.90;;;;;;5117501;28;20440;-48
2022/10/04 05:34:41;;;;;;;5.70;1.80;;;12.50;99.90;;;;;;5117720;28;20480;-49
2022/10/04 05:37:35;;;;;;;13.00;2.07;;;12.50;99.90;;;;;;5117202;28;20469;-48
2022/10/04 05:40:23;;;;;;;9.27;1.70;;;12.60;99.90;;;;;;5117435;28;20483;-49
2022/10/04 05:42:53;;;;;;;3.00;1.50;;;12.70;99.90;;;;;;5117303;28;20467;-49
2022/10/04 05:45:22;;;;;;;4.53;1.80;;;12.80;99.90;;;;;;5116936;28;20456;-47
2022/10/04 05:47:52;;;;;;;13.97;2.13;;;12.90;99.90;;;;;;5110459;28;20477;-46
2022/10/04 05:50:22;;;;;;;4.03;2.37;;;12.90;99.90;;;;;;5096646;28;20437;-45
2022/10/04 05:52:51;;;;;;;4.90;1.80;;;13.10;99.90;;;;;;5096281;28;20435;-47
2022/10/04 05:55:31;;;;;;;5.43;1.90;;;13.20;99.90;;;;;;5096511;28;20476;-43
2022/10/04 05:58:24;;;;;;;4.53;2.00;;;13.30;99.90;;;;;;5109191;28;20475;-44
2022/10/04 06:01:17;;;;;;;3.60;2.10;;;13.40;99.90;;;;;;5117350;28;20468;-46
2022/10/04 06:04:07;;;;;;;10.90;2.50;;;13.40;99.90;;;;;;5117538;28;20515;-48
2022/10/04 06:06:40;;;;;;;2.27;1.70;;;13.40;99.90;;;;;;5117001;28;20501;-45
2022/10/04 06:09:16;;;;;;;5.80;2.43;;;13.40;99.90;;;;;;5117518;28;20441;-49
2022/10/04 06:12:00;;;;;;;10.50;1.57;;;13.50;99.90;;;;;;5117112;28;20902;-46
2022/10/04 06:14:53;;;;;;;7.43;2.67;;;13.50;99.90;;;;;;5117487;28;20554;-45
2022/10/04 06:17:43;;;;;;;7.80;2.43;;;13.60;99.90;;;;;;5117445;28;20576;-43
2022/10/04 06:20:48;;;;;;;5.40;1.93;;;13.60;99.90;;;;;;5117072;28;20496;-44
2022/10/04 06:23:17;;;;;;;6.03;1.97;;;13.70;99.90;;;;;;5117681;28;20440;-42
2022/10/04 06:25:49;;;;;;;7.20;2.00;;;13.70;99.90;;;;;;5116571;28;20468;-48
2022/10/04 06:28:22;;;;;;;8.40;2.03;;;13.80;99.90;;;;;;5117080;28;20436;-46
2022/10/04 06:31:20;;;;;;;7.83;2.10;;;13.90;99.90;;;;;;5117160;28;20464;-51
2022/10/04 06:34:16;;;;;;;1.53;1.43;;;14.00;99.90;;;;;;5117031;28;20450;-45
2022/10/04 06:37:15;;;;;;;11.20;2.23;;;14.10;99.90;;;;;;5116768;28;20436;-46
2022/10/04 06:40:03;;;;;;;7.20;2.10;;;14.10;99.90;;;;;;5116551;28;20529;-47
2022/10/04 06:42:41;;;;;;;5.07;2.23;;;14.20;99.90;;;;;;5116580;28;20436;-46
2022/10/04 06:45:28;;;;;;;3.27;1.87;;;14.20;99.90;;;;;;5116370;28;20567;-48
2022/10/04 06:48:31;;;;;;;6.77;1.80;;;14.30;99.90;;;;;;5116418;28;20420;-50
2022/10/04 06:51:07;;;;;;;6.00;2.47;;;14.20;99.90;;;;;;5116606;28;20464;-50
2022/10/04 06:53:45;;;;;;;3.20;1.67;;;14.20;99.90;;;;;;5116741;28;20417;-45
2022/10/04 06:56:34;;;;;;;4.70;2.00;;;14.00;99.90;;;;;;5116503;28;20469;-48
2022/10/04 06:59:25;;;;;;;3.23;1.97;;;13.90;99.90;;;;;;5116499;28;20474;-47
2022/10/04 07:01:57;;;;;;;4.70;1.93;;;13.80;99.90;;;;;;5116560;28;20452;-48
2022/10/04 07:04:35;;;;;;;2.60;2.10;;;13.80;99.90;;;;;;5116341;28;20449;-46
2022/10/04 07:07:33;;;;;;;8.60;2.70;;;13.90;99.90;;;;;;5116699;28;20482;-49
2022/10/04 07:10:05;;;;;;;7.83;2.30;;;13.80;99.90;;;;;;5115850;28;20586;-48
2022/10/04 07:12:33;;;;;;;3.20;2.13;;;13.80;99.90;;;;;;5117377;28;20463;-46
2022/10/04 07:15:03;;;;;;;3.93;2.00;;;13.80;99.90;;;;;;5119564;28;20472;-49
2022/10/04 07:17:40;;;;;;;8.77;2.33;;;13.90;99.90;;;;;;5119932;28;20497;-47
2022/10/04 07:20:18;;;;;;;3.33;2.10;;;13.90;99.90;;;;;;5119897;28;20482;-48
2022/10/04 07:22:51;;;;;;;1.60;1.43;;;13.90;99.90;;;;;;5119543;28;20429;-44
2022/10/04 07:25:23;;;;;;;6.83;2.43;;;13.90;99.90;;;;;;5120031;28;20476;-47
2022/10/04 07:29:19;;;;;;;4.67;2.07;;;13.90;99.90;;;;;;5119948;28;20516;-45
2022/10/04 07:30:46;;;;;;;7.50;2.20;;;13.90;99.90;;;;;;5119546;28;20510;-50
2022/10/04 07:33:20;;;;;;;7.07;2.00;;;14.00;99.90;;;;;;5119341;28;20761;-47
2022/10/04 07:35:50;;;;;;;2.60;1.97;;;14.00;99.90;;;;;;5119418;28;20472;-48
2022/10/04 07:38:23;;;;;;;4.33;3.30;;;14.10;99.90;;;;;;5119302;28;20460;-48
2022/10/04 07:41:06;;;;;;;3.20;2.30;;;14.20;99.90;;;;;;5119561;28;20951;-52
2022/10/04 07:43:35;;;;;;;5.53;2.53;;;14.20;99.90;;;;;;5119647;28;20447;-44
2022/10/04 07:46:05;;;;;;;4.07;2.50;;;14.20;99.90;;;;;;5118803;28;20476;-48
2022/10/04 07:48:33;;;;;;;5.10;2.60;;;14.10;99.90;;;;;;5119269;28;20429;-49
2022/10/04 07:51:11;;;;;;;16.33;3.17;;;14.10;99.90;;;;;;5118547;28;20449;-47
2022/10/04 07:53:46;;;;;;;10.50;2.57;;;14.20;99.90;;;;;;5119594;28;20452;-44
2022/10/04 07:56:19;;;;;;;3.43;2.00;;;14.20;99.90;;;;;;5119898;28;20773;-41
2022/10/04 07:58:56;;;;;;;6.93;2.07;;;14.10;99.90;;;;;;5119606;28;20478;-45
2022/10/04 08:01:32;;;;;;;13.40;2.90;;;14.10;99.90;;;;;;5123785;28;20464;-50
2022/10/04 08:04:27;;;;;;;4.20;2.13;;;14.20;99.90;;;;;;5119038;28;20424;-43
2022/10/04 08:06:58;;;;;;;3.43;2.20;;;14.20;99.90;;;;;;5119196;28;20520;-49
2022/10/04 08:09:48;;;;;;;12.43;3.17;;;14.10;99.90;;;;;;5118792;28;20433;-44
2022/10/04 08:12:21;;;;;;;5.40;2.60;;;14.10;99.90;;;;;;5119219;28;20854;-44
2022/10/04 08:14:55;;;;;;;10.20;2.80;;;14.20;99.90;;;;;;5118963;28;20429;-48
2022/10/04 08:17:40;;;;;;;3.37;2.40;;;13.90;99.90;;;;;;5118740;28;20429;-45
2022/10/04 08:20:26;;;;;;;6.93;2.57;;;14.20;99.90;;;;;;5118112;28;20420;-50
2022/10/04 08:23:03;;;;;;;4.90;2.80;;;14.30;99.90;;;;;;5118589;28;20459;-47
2022/10/04 08:25:42;;;;;;;5.03;3.20;;;14.40;99.90;;;;;;5118101;28;20951;-49
2022/10/04 08:31:12;;;;;;;9.33;3.10;;;14.60;99.90;;;;;;5117659;28;20460;-47
2022/10/04 08:33:56;;;;;;;4.67;3.07;;;14.90;99.90;;;;;;5117673;28;20462;-46
2022/10/04 08:36:39;;;;;;;4.47;2.90;;;15.10;99.90;;;;;;5117799;28;20460;-45
2022/10/04 08:39:21;;;;;;;7.63;2.73;;;15.30;99.90;;;;;;5117610;28;20970;-46
2022/10/04 08:42:24;;;;;;;8.87;2.70;;;15.40;99.90;;;;;;5117066;28;20529;-45
2022/10/04 08:45:31;;;;;;;6.00;3.30;;;15.40;99.90;;;;;;5117591;28;20452;-46
2022/10/04 08:48:29;;;;;;;6.33;3.80;;;15.30;99.90;;;;;;5116921;28;20448;-46
2022/10/04 08:51:39;;;;;;;4.10;2.90;;;15.20;99.90;;;;;;5117603;28;20985;-49
2022/10/04 08:54:35;;;;;;;7.40;2.20;;;15.40;99.90;;;;;;5117066;28;20456;-48
2022/10/04 08:57:18;;;;;;;4.20;2.33;;;15.60;99.90;;;;;;5117471;28;20468;-46
2022/10/04 09:00:12;;;;;;;5.07;3.13;;;15.90;99.90;;;;;;5117041;28;20479;-51
2022/10/04 09:03:25;;;;;;;7.93;3.07;;;16.30;99.90;;;;;;5117051;28;20453;-46
2022/10/04 09:05:58;;;;;;;7.63;3.03;;;16.70;99.90;;;;;;5116800;28;20493;-47
2022/10/04 09:09:13;;;;;;;5.60;3.10;;;17.00;99.90;;;;;;5116688;28;20431;-49
2022/10/04 09:11:57;;;;;;;5.70;2.93;;;17.10;99.90;;;;;;5037489;28;20940;-46
2022/10/04 09:14:51;;;;;;;3.40;2.33;;;16.90;99.90;;;;;;5108688;28;20499;-48
2022/10/04 09:17:21;;;;;;;5.53;2.23;;;16.90;99.90;;;;;;5116479;28;20465;-49
2022/10/04 09:19:55;;;;;;;4.83;2.43;;;17.10;99.90;;;;;;5116021;28;20479;-50
2022/10/04 09:22:41;;;;;;;2.50;2.00;;;17.40;99.90;;;;;;5116043;28;20416;-50
2022/10/04 09:25:28;;;;;;;3.60;2.10;;;17.80;99.90;;;;;;5116285;28;20428;-45
2022/10/04 09:28:21;;;;;;;3.07;1.97;;;18.10;99.90;;;;;;5116033;28;20463;-45
2022/10/04 09:31:07;;;;;;;4.40;2.80;;;18.40;99.90;;;;;;5115820;28;20567;-46
2022/10/04 09:34:01;;;;;;;4.77;2.23;;;19.00;99.90;;;;;;5115752;28;20425;-47
2022/10/04 09:36:59;;;;;;;1.87;1.60;;;19.10;99.90;;;;;;5115378;28;20533;-44
2022/10/04 09:39:58;;;;;;;8.33;2.97;;;19.20;99.90;;;;;;5116172;28;20480;-44
2022/10/04 09:42:46;;;;;;;8.10;2.30;;;19.20;99.90;;;;;;5115947;28;20475;-45
2022/10/04 09:45:33;;;;;;;4.20;1.90;;;18.90;99.90;;;;;;5115487;28;20818;-47
2022/10/04 09:48:23;;;;;;;2.47;1.60;;;19.00;99.90;;;;;;5115618;28;20424;-51
2022/10/04 09:51:29;;;;;;;2.77;1.60;;;19.30;99.90;;;;;;5115525;28;20815;-48
2022/10/04 09:54:19;;;;;;;7.23;1.83;;;19.30;99.90;;;;;;5115252;28;20420;-46
2022/10/04 09:57:05;;;;;;;11.07;2.00;;;19.20;99.90;;;;;;5116084;28;20475;-47
2022/10/04 09:59:55;;;;;;;3.60;1.80;;;19.20;99.90;;;;;;5115440;28;20464;-48
2022/10/04 10:03:00;;;;;;;3.00;2.00;;;19.40;99.90;;;;;;5115319;28;20464;-42
2022/10/04 10:05:38;;;;;;;2.20;1.50;;;19.50;99.90;;;;;;5115636;28;20440;-47
2022/10/04 10:08:17;;;;;;;3.53;1.73;;;19.80;99.90;;;;;;5114978;28;20421;-48
2022/10/04 10:14:15;;;;;;;5.93;1.70;;;20.60;99.90;;;;;;5114975;28;20892;-44
2022/10/04 10:17:06;;;;;;;3.33;1.57;;;21.10;99.90;;;;;;5114748;28;20468;-45
2022/10/04 10:20:00;;;;;;;3.63;1.90;;;21.30;99.90;;;;;;5104489;28;20537;-43
2022/10/04 10:22:53;;;;;;;2.57;1.60;;;21.00;99.90;;;;;;5101804;28;20471;-45
2022/10/04 10:25:46;;;;;;;4.67;2.63;;;20.90;99.90;;;;;;5114964;28;20456;-44
2022/10/04 10:28:53;;;;;;;4.77;1.97;;;20.70;99.90;;;;;;5114962;28;20433;-46
2022/10/04 10:31:30;;;;;;;4.87;1.93;;;20.30;99.90;;;;;;5114788;28;20463;-45
2022/10/04 10:34:20;;;;;;;3.63;2.03;;;20.00;99.90;;;;;;5115048;28;20805;-45
2022/10/04 10:37:05;;;;;;;4.70;2.27;;;20.30;99.90;;;;;;5115069;28;20543;-45
2022/10/04 10:40:11;;;;;;;5.57;1.90;;;20.60;99.90;;;;;;5114760;28;20468;-48
2022/10/04 10:43:03;;;;;;;3.77;2.00;;;20.80;99.90;;;;;;5114705;28;20830;-44
2022/10/04 10:45:44;;;;;;;3.70;2.10;;;20.80;99.90;;;;;;5114396;28;20443;-44
2022/10/04 10:48:27;;;;;;;5.43;1.90;;;20.90;99.90;;;;;;5116939;28;20444;-48
2022/10/04 10:51:05;;;;;;;3.97;1.60;;;20.60;99.90;;;;;;5118667;28;20440;-46
2022/10/04 10:54:36;;;;;;;4.90;1.60;;;20.50;99.90;;;;;;5118937;28;20805;-47
2022/10/04 10:57:19;;;;;;;11.43;2.20;;;20.40;99.90;;;;;;5118581;28;20563;-44
2022/10/04 11:00:16;;;;;;;4.43;1.90;;;20.10;99.90;;;;;;5118596;28;20503;-43
2022/10/04 11:03:17;;;;;;;2.37;2.17;;;19.80;99.90;;;;;;5118797;28;20498;-44
2022/10/04 11:06:14;;;;;;;4.00;1.70;;;19.50;99.90;;;;;;5118486;28;20528;-48
2022/10/04 11:09:25;;;;;;;3.50;2.23;;;19.20;99.90;;;;;;5118631;28;20520;-50
2022/10/04 11:12:40;;;;;;;3.23;1.83;;;19.10;99.90;;;;;;5117552;28;20472;-49
2022/10/04 11:15:47;;;;;;;2.90;1.80;;;19.00;99.90;;;;;;5118459;28;20424;-44
2022/10/04 11:18:41;;;;;;;3.70;1.60;;;18.90;99.90;;;;;;5118037;28;20428;-51
2022/10/04 11:21:51;;;;;;;2.90;1.40;;;19.10;99.90;;;;;;5118315;28;20726;-48
2022/10/04 11:24:34;;;;;;;1.93;1.73;;;19.20;99.90;;;;;;5101696;28;20463;-51
2022/10/04 11:27:17;;;;;;;3.33;1.90;;;19.20;99.90;;;;;;5117830;28;20456;-51
2022/10/04 11:30:01;;;;;;;1.93;1.50;;;19.00;99.90;;;;;;5117898;28;20421;-52
2022/10/04 11:33:03;;;;;;;2.40;1.70;;;18.70;99.90;;;;;;5118098;28;20473;-45
2022/10/04 11:35:57;;;;;;;5.80;1.90;;;18.60;99.90;;;;;;5118716;28;20519;-46
2022/10/04 11:38:47;;;;;;;2.97;2.00;;;18.60;99.90;;;;;;5113371;28;20545;-46
2022/10/04 11:41:18;;;;;;;4.87;2.30;;;18.50;99.90;;;;;;5119237;28;20432;-47
2022/10/04 11:44:14;;;;;;;4.03;1.77;;;18.40;99.90;;;;;;5119239;28;20732;-47
2022/10/04 11:46:49;;;;;;;5.03;2.00;;;18.40;99.90;;;;;;5118999;28;20448;-39
2022/10/04 11:49:44;;;;;;;5.33;1.77;;;18.50;99.90;;;;;;5118902;28;20413;-46
2022/10/04 11:52:48;;;;;;;3.07;1.70;;;18.60;99.90;;;;;;5118215;28;20836;-47
2022/10/04 11:55:53;;;;;;;5.03;1.70;;;18.60;99.90;;;;;;5119170;28;20475;-39
2022/10/04 11:58:31;;;;;;;4.57;1.90;;;18.60;99.90;;;;;;5118739;28;20865;-41
2022/10/04 12:01:39;;;;;;;2.77;1.40;;;18.40;99.90;;;;;;5118901;28;20437;-44
2022/10/04 12:04:33;;;;;;;2.27;1.70;;;18.30;99.90;;;;;;5093067;28;20544;-42
2022/10/04 12:07:26;;;;;;;2.63;1.83;;;18.10;99.90;;;;;;5118812;28;20483;-40
2022/10/04 12:10:03;;;;;;;6.40;1.63;;;18.00;99.90;;;;;;5119027;28;20498;-42
2022/10/04 12:13:08;;;;;;;5.57;2.07;;;17.90;99.90;;;;;;5118406;28;20795;-43
2022/10/04 12:15:48;;;;;;;5.00;2.10;;;17.80;99.90;;;;;;5092699;28;20449;-47
2022/10/04 12:18:46;;;;;;;2.50;1.63;;;17.60;99.90;;;;;;5118872;28;20525;-44
2022/10/04 12:21:57;;;;;;;1.90;1.37;;;17.70;99.90;;;;;;5118614;28;20425;-41
2022/10/04 12:24:57;;;;;;;6.80;1.70;;;18.00;99.90;;;;;;5056436;28;20510;-44
2022/10/04 12:28:11;;;;;;;1.90;1.40;;;18.30;99.90;;;;;;5056563;28;20545;-43
2022/10/04 12:31:09;;;;;;;4.97;2.03;;;18.70;99.90;;;;;;5056005;28;20775;-40
2022/10/04 12:33:43;;;;;;;3.20;1.90;;;19.10;99.90;;;;;;5118548;28;20464;-42
2022/10/04 12:36:29;;;;;;;4.30;2.03;;;19.40;99.90;;;;;;5118237;28;20433;-43
2022/10/04 12:39:19;;;;;;;6.23;2.03;;;19.30;99.90;;;;;;5117837;28;20488;-41
2022/10/04 12:41:59;;;;;;;4.63;1.67;;;19.20;99.90;;;;;;5117853;28;20469;-42
2022/10/04 12:44:41;;;;;;;5.17;1.53;;;19.40;99.90;;;;;;5117331;28;20424;-42
2022/10/04 12:47:56;;;;;;;9.40;1.90;;;19.50;99.90;;;;;;5117626;28;20456;-42
2022/10/04 12:50:34;;;;;;;6.77;2.30;;;19.40;99.90;;;;;;5051983;28;20905;-40
2022/10/04 12:53:22;;;;;;;2.37;1.80;;;21.70;99.90;;;;;;5054876;28;20539;-42
2022/10/04 12:56:07;;;;;;;5.80;1.60;;;19.30;99.90;;;;;;5103088;28;20552;-44
2022/10/04 12:58:45;;;;;;;2.03;1.63;;;19.30;99.90;;;;;;5117341;28;20503;-44
2022/10/04 13:01:21;;;;;;;2.50;2.07;;;19.30;99.90;;;;;;5117217;28;20417;-46
2022/10/04 13:04:13;;;;;;;2.33;1.53;;;19.20;99.90;;;;;;5117358;28;20456;-47
2022/10/04 13:06:54;;;;;;;6.10;1.90;;;19.10;99.90;;;;;;5117653;28;20516;-48
2022/10/04 13:09:36;;;;;;;2.40;1.47;;;19.10;99.90;;;;;;5117299;28;20515;-45
2022/10/04 13:12:28;;;;;;;4.03;2.20;;;18.90;99.90;;;;;;5117025;28;20459;-44
2022/10/04 13:15:13;;;;;;;4.17;1.70;;;18.90;99.90;;;;;;5117535;28;20428;-45
2022/10/04 13:17:49;;;;;;;4.80;2.00;;;18.90;99.90;;;;;;5116694;28;20464;-45
2022/10/04 13:20:29;;;;;;;2.60;1.70;;;19.00;99.90;;;;;;5117052;28;20476;-42
2022/10/04 13:23:01;;;;;;;5.17;2.47;;;18.90;99.90;;;;;;5117332;28;20528;-42
2022/10/04 13:26:02;;;;;;;4.67;2.30;;;18.90;99.90;;;;;;5117640;28;20429;-42
2022/10/04 13:28:38;;;;;;;2.60;1.33;;;18.90;99.90;;;;;;5116929;28;20813;-45
2022/10/04 13:31:08;;;;;;;3.27;1.50;;;19.00;99.90;;;;;;5117554;28;20421;-40
2022/10/04 13:33:44;;;;;;;7.33;2.70;;;18.90;99.90;;;;;;5117390;28;20955;-40
2022/10/04 13:36:18;;;;;;;4.67;1.30;;;18.90;99.90;;;;;;5117547;28;20451;-39
2022/10/04 13:39:06;;;;;;;8.43;1.63;;;18.80;99.90;;;;;;5117437;28;20480;-45
2022/10/04 13:41:48;;;;;;;8.23;1.50;;;18.70;99.90;;;;;;5117200;28;20838;-42
2022/10/04 13:44:32;;;;;;;4.20;2.00;;;18.70;99.90;;;;;;5117328;28;20482;-43
2022/10/04 13:47:16;;;;;;;1.93;1.30;;;18.80;99.90;;;;;;5116661;28;20928;-45
2022/10/04 13:49:57;;;;;;;3.67;1.50;;;18.80;99.90;;;;;;5116681;28;20417;-46
2022/10/04 13:58:31;;;;;;;4.00;1.93;;;19.20;99.90;;;;;;5116495;28;20501;-42
2022/10/04 14:01:44;;;;;;;3.50;1.70;;;19.30;99.90;;;;;;5116943;28;20909;-40
2022/10/04 14:04:30;;;;;;;4.43;1.67;;;19.30;99.90;;;;;;5116850;28;20489;-42
2022/10/04 14:07:18;;;;;;;2.90;1.33;;;19.30;99.90;;;;;;5116241;28;20512;-45
2022/10/04 14:10:00;;;;;;;3.20;1.40;;;19.20;99.90;;;;;;5116462;28;20447;-46